createdAt,value
2019-01-10T00:00:32.230Z,0
2019-01-10T00:01:12.850Z,0
2019-01-10T00:01:53.469Z,0
2019-01-10T00:02:34.088Z,0
2019-01-10T00:03:14.702Z,0
2019-01-10T00:03:55.405Z,0
2019-01-10T00:04:35.980Z,0
2019-01-10T00:05:16.619Z,0
2019-01-10T00:05:57.238Z,0
2019-01-10T00:06:37.853Z,0
2019-01-10T00:07:18.460Z,0
2019-01-10T00:07:59.092Z,0
2019-01-10T00:08:39.692Z,0
2019-01-10T00:09:20.316Z,0
2019-01-10T00:10:00.942Z,0
2019-01-10T00:10:41.554Z,0
2019-01-10T00:11:22.159Z,0
2019-01-10T00:12:02.808Z,0
2019-01-10T00:12:43.418Z,0
2019-01-10T00:13:24.016Z,0
2019-01-10T00:14:04.646Z,0
2019-01-10T00:14:45.274Z,0
2019-01-10T00:15:25.926Z,0
2019-01-10T00:16:06.514Z,0
2019-01-10T00:16:47.140Z,0
2019-01-10T00:17:27.778Z,0
2019-01-10T00:18:08.422Z,0
2019-01-10T00:18:49.037Z,0
2019-01-10T00:19:29.672Z,0
2019-01-10T00:20:10.295Z,0
2019-01-10T00:20:50.915Z,0
2019-01-10T00:21:31.648Z,0
2019-01-10T00:22:12.268Z,0
2019-01-10T00:22:52.884Z,0
2019-01-10T00:23:33.496Z,0
2019-01-10T00:24:14.108Z,0
2019-01-10T00:24:54.712Z,0
2019-01-10T00:25:35.318Z,0
2019-01-10T00:26:15.928Z,0
2019-01-10T00:26:56.585Z,0
2019-01-10T00:27:37.204Z,0
2019-01-10T00:28:17.832Z,0
2019-01-10T00:28:58.461Z,0
2019-01-10T00:29:39.140Z,0
2019-01-10T00:30:19.748Z,0
2019-01-10T00:31:00.374Z,0
2019-01-10T00:31:40.994Z,0
2019-01-10T00:32:21.583Z,0
2019-01-10T00:33:02.250Z,0
2019-01-10T00:33:42.928Z,0
2019-01-10T00:34:23.567Z,0
2019-01-10T00:35:04.280Z,0
2019-01-10T00:35:44.964Z,0
2019-01-10T00:36:25.690Z,0
2019-01-10T00:37:06.350Z,0
2019-01-10T00:37:47.061Z,0
2019-01-10T00:38:27.586Z,0
2019-01-10T00:39:08.224Z,0
2019-01-10T00:39:48.856Z,0
2019-01-10T00:40:29.488Z,0
2019-01-10T00:41:10.146Z,0
2019-01-10T00:41:50.755Z,0
2019-01-10T00:42:31.418Z,0
2019-01-10T00:43:12.040Z,0
2019-01-10T00:43:52.640Z,0
2019-01-10T00:44:33.253Z,0
2019-01-10T00:45:13.873Z,0
2019-01-10T00:45:54.491Z,0
2019-01-10T00:46:35.104Z,0
2019-01-10T00:47:15.718Z,0
2019-01-10T00:47:56.419Z,0
2019-01-10T00:48:37.043Z,0
2019-01-10T00:49:17.716Z,0
2019-01-10T00:49:58.384Z,0
2019-01-10T00:50:39.017Z,0
2019-01-10T00:51:19.658Z,0
2019-01-10T00:52:00.339Z,0
2019-01-10T00:52:41.032Z,0
2019-01-10T00:53:21.689Z,0
2019-01-10T00:54:02.302Z,0
2019-01-10T00:54:42.959Z,0
2019-01-10T00:55:23.649Z,0
2019-01-10T00:56:04.280Z,0
2019-01-10T00:56:44.889Z,0
2019-01-10T00:57:25.637Z,0
2019-01-10T00:58:06.254Z,0
2019-01-10T00:58:47.009Z,0
2019-01-10T00:59:27.592Z,0
2019-01-10T01:00:08.227Z,0
2019-01-10T01:00:48.880Z,0
2019-01-10T01:01:29.512Z,0
2019-01-10T01:02:10.118Z,0
2019-01-10T01:02:50.726Z,0
2019-01-10T01:03:31.328Z,0
2019-01-10T01:04:11.928Z,0
2019-01-10T01:04:52.522Z,0
2019-01-10T01:05:33.126Z,0
2019-01-10T01:06:15.644Z,0
2019-01-10T01:06:54.356Z,0
2019-01-10T01:07:34.980Z,0
2019-01-10T01:08:15.611Z,0
2019-01-10T01:08:56.239Z,0
2019-01-10T01:09:36.866Z,0
2019-01-10T01:10:17.481Z,0
2019-01-10T01:10:58.132Z,0
2019-01-10T01:11:38.758Z,0
2019-01-10T01:12:19.406Z,0
2019-01-10T01:13:00.023Z,0
2019-01-10T01:13:40.628Z,0
2019-01-10T01:14:21.319Z,0
2019-01-10T01:15:01.904Z,0
2019-01-10T01:15:42.692Z,0
2019-01-10T01:16:23.346Z,0
2019-01-10T01:17:03.992Z,0
2019-01-10T01:17:44.613Z,0
2019-01-10T01:18:25.230Z,0
2019-01-10T01:19:05.864Z,0
2019-01-10T01:19:46.470Z,0
2019-01-10T01:20:27.144Z,0
2019-01-10T01:21:07.838Z,0
2019-01-10T01:21:48.462Z,0
2019-01-10T01:22:29.085Z,0
2019-01-10T01:23:09.730Z,0
2019-01-10T01:23:50.371Z,0
2019-01-10T01:24:30.979Z,0
2019-01-10T01:25:11.634Z,0
2019-01-10T01:25:52.269Z,0
2019-01-10T01:26:32.893Z,0
2019-01-10T01:27:13.544Z,0
2019-01-10T01:27:54.179Z,0
2019-01-10T01:28:34.868Z,0
2019-01-10T01:29:15.472Z,0
2019-01-10T01:29:56.110Z,0
2019-01-10T01:30:36.718Z,0
2019-01-10T01:31:17.324Z,0
2019-01-10T01:31:57.919Z,0
2019-01-10T01:32:38.524Z,0
2019-01-10T01:33:19.126Z,0
2019-01-10T01:33:59.734Z,0
2019-01-10T01:34:40.409Z,0
2019-01-10T01:35:21.675Z,0
2019-01-10T01:36:01.946Z,0
2019-01-10T01:36:42.734Z,0
2019-01-10T01:37:23.498Z,0
2019-01-10T01:38:04.281Z,0
2019-01-10T01:38:45.075Z,0
2019-01-10T01:39:25.836Z,0
2019-01-10T01:40:06.621Z,0
2019-01-10T01:40:47.371Z,0
2019-01-10T01:41:28.125Z,0
2019-01-10T01:42:08.932Z,0
2019-01-10T01:42:49.719Z,0
2019-01-10T01:43:30.465Z,0
2019-01-10T01:44:11.232Z,0
2019-01-10T01:44:51.986Z,0
2019-01-10T01:45:32.774Z,0
2019-01-10T01:46:13.564Z,0
2019-01-10T01:46:54.311Z,0
2019-01-10T01:47:35.114Z,0
2019-01-10T01:48:15.920Z,0
2019-01-10T01:48:56.694Z,0
2019-01-10T01:49:37.494Z,0
2019-01-10T01:50:18.259Z,0
2019-01-10T01:50:59.021Z,0
2019-01-10T01:51:39.785Z,0
2019-01-10T01:52:20.558Z,0
2019-01-10T01:53:01.308Z,0
2019-01-10T01:53:42.074Z,0
2019-01-10T01:54:22.829Z,0
2019-01-10T01:55:03.565Z,0
2019-01-10T01:55:44.335Z,0
2019-01-10T01:56:25.092Z,0
2019-01-10T01:57:05.878Z,0
2019-01-10T01:57:46.640Z,0
2019-01-10T01:58:27.438Z,0
2019-01-10T01:59:08.192Z,0
2019-01-10T01:59:48.929Z,0
2019-01-10T02:00:29.684Z,0
2019-01-10T02:01:10.378Z,0
2019-01-10T02:01:51.105Z,0
2019-01-10T02:02:31.708Z,0
2019-01-10T02:03:12.320Z,0
2019-01-10T02:03:52.946Z,0
2019-01-10T02:04:33.578Z,0
2019-01-10T02:05:14.177Z,0
2019-01-10T02:05:54.785Z,0
2019-01-10T02:06:35.416Z,0
2019-01-10T02:07:16.035Z,0
2019-01-10T02:07:56.689Z,0
2019-01-10T02:08:37.320Z,0
2019-01-10T02:09:17.932Z,0
2019-01-10T02:09:58.532Z,0
2019-01-10T02:10:39.141Z,0
2019-01-10T02:11:19.762Z,0
2019-01-10T02:12:00.410Z,0
2019-01-10T02:12:41.011Z,0
2019-01-10T02:13:21.617Z,0
2019-01-10T02:14:02.231Z,0
2019-01-10T02:14:42.847Z,0
2019-01-10T02:15:23.469Z,0
2019-01-10T02:16:04.062Z,0
2019-01-10T02:16:44.725Z,0
2019-01-10T02:17:25.353Z,0
2019-01-10T02:18:05.975Z,0
2019-01-10T02:18:46.602Z,0
2019-01-10T02:19:27.228Z,0
2019-01-10T02:20:07.830Z,0
2019-01-10T02:20:48.425Z,0
2019-01-10T02:21:29.055Z,0
2019-01-10T02:22:09.647Z,0
2019-01-10T02:22:50.250Z,0
2019-01-10T02:23:30.857Z,0
2019-01-10T02:24:11.463Z,0
2019-01-10T02:24:52.094Z,0
2019-01-10T02:25:32.733Z,0
2019-01-10T02:26:13.341Z,0
2019-01-10T02:26:53.934Z,0
2019-01-10T02:27:34.544Z,0
2019-01-10T02:28:15.152Z,0
2019-01-10T02:28:55.762Z,0
2019-01-10T02:29:36.394Z,0
2019-01-10T02:30:17.161Z,0
2019-01-10T02:30:57.626Z,0
2019-01-10T02:31:38.224Z,0
2019-01-10T02:32:18.805Z,0
2019-01-10T02:32:59.419Z,0
2019-01-10T02:33:40.059Z,0
2019-01-10T02:34:20.673Z,0
2019-01-10T02:35:01.273Z,0
2019-01-10T02:35:41.886Z,0
2019-01-10T02:36:22.507Z,0
2019-01-10T02:37:03.121Z,0
2019-01-10T02:37:43.749Z,0
2019-01-10T02:38:24.364Z,0
2019-01-10T02:39:04.983Z,0
2019-01-10T02:39:45.582Z,0
2019-01-10T02:40:26.197Z,0
2019-01-10T02:41:06.826Z,0
2019-01-10T02:41:47.438Z,0
2019-01-10T02:42:28.060Z,0
2019-01-10T02:43:08.677Z,0
2019-01-10T02:43:49.288Z,0
2019-01-10T02:44:29.916Z,0
2019-01-10T02:45:10.530Z,0
2019-01-10T02:45:51.136Z,0
2019-01-10T02:46:31.773Z,0
2019-01-10T02:47:12.388Z,0
2019-01-10T02:47:52.989Z,0
2019-01-10T02:48:33.590Z,0
2019-01-10T02:49:14.207Z,0
2019-01-10T02:49:54.840Z,0
2019-01-10T02:50:35.449Z,0
2019-01-10T02:51:16.057Z,0
2019-01-10T02:51:56.666Z,0
2019-01-10T02:52:37.304Z,0
2019-01-10T02:53:17.893Z,0
2019-01-10T02:53:58.493Z,0
2019-01-10T02:54:39.099Z,0
2019-01-10T02:55:19.739Z,0
2019-01-10T02:56:00.356Z,0
2019-01-10T02:56:40.993Z,0
2019-01-10T02:57:21.603Z,0
2019-01-10T02:58:02.221Z,0
2019-01-10T02:58:42.818Z,0
2019-01-10T02:59:23.414Z,0
2019-01-10T03:00:04.019Z,0
2019-01-10T03:00:44.613Z,0
2019-01-10T03:01:25.211Z,0
2019-01-10T03:02:05.869Z,0
2019-01-10T03:02:46.551Z,0
2019-01-10T03:03:27.277Z,0
2019-01-10T03:04:08.012Z,0
2019-01-10T03:04:48.567Z,0
2019-01-10T03:05:29.222Z,0
2019-01-10T03:06:09.862Z,0
2019-01-10T03:06:50.484Z,0
2019-01-10T03:07:31.110Z,0
2019-01-10T03:08:11.721Z,0
2019-01-10T03:08:52.339Z,0
2019-01-10T03:09:32.947Z,0
2019-01-10T03:10:13.545Z,0
2019-01-10T03:10:54.193Z,0
2019-01-10T03:11:34.801Z,0
2019-01-10T03:12:15.399Z,0
2019-01-10T03:12:56.015Z,0
2019-01-10T03:13:37.128Z,0
2019-01-10T03:14:17.238Z,0
2019-01-10T03:14:57.862Z,0
2019-01-10T03:15:38.485Z,0
2019-01-10T03:16:19.085Z,0
2019-01-10T03:16:59.692Z,0
2019-01-10T03:17:40.292Z,0
2019-01-10T03:18:20.881Z,0
2019-01-10T03:19:01.493Z,0
2019-01-10T03:19:42.115Z,0
2019-01-10T03:20:22.722Z,0
2019-01-10T03:21:03.335Z,0
2019-01-10T03:21:43.948Z,0
2019-01-10T03:22:24.556Z,0
2019-01-10T03:23:05.174Z,0
2019-01-10T03:23:45.781Z,0
2019-01-10T03:24:26.397Z,0
2019-01-10T03:25:07.014Z,0
2019-01-10T03:25:47.624Z,0
2019-01-10T03:26:28.255Z,0
2019-01-10T03:27:08.869Z,0
2019-01-10T03:27:49.479Z,0
2019-01-10T03:28:30.105Z,0
2019-01-10T03:29:11.610Z,0
2019-01-10T03:29:51.315Z,0
2019-01-10T03:30:31.927Z,0
2019-01-10T03:31:12.555Z,0
2019-01-10T03:31:53.337Z,0
2019-01-10T03:32:33.797Z,0
2019-01-10T03:33:14.403Z,0
2019-01-10T03:33:55.021Z,0
2019-01-10T03:34:35.659Z,0
2019-01-10T03:35:16.289Z,0
2019-01-10T03:35:56.943Z,0
2019-01-10T03:36:37.543Z,0
2019-01-10T03:37:18.160Z,0
2019-01-10T03:37:58.789Z,0
2019-01-10T03:38:39.407Z,0
2019-01-10T03:39:20.028Z,0
2019-01-10T03:40:00.633Z,0
2019-01-10T03:40:41.269Z,0
2019-01-10T03:41:21.875Z,0
2019-01-10T03:42:02.475Z,0
2019-01-10T03:42:43.093Z,0
2019-01-10T03:43:23.701Z,0
2019-01-10T03:44:04.293Z,0
2019-01-10T03:44:44.899Z,0
2019-01-10T03:45:25.552Z,0
2019-01-10T03:46:06.132Z,0
2019-01-10T03:46:46.733Z,0
2019-01-10T03:47:27.394Z,0
2019-01-10T03:48:08.023Z,0
2019-01-10T03:48:48.629Z,0
2019-01-10T03:49:29.230Z,0
2019-01-10T03:50:09.860Z,0
2019-01-10T03:50:50.481Z,0
2019-01-10T03:51:31.078Z,0
2019-01-10T03:52:11.695Z,0
2019-01-10T03:52:52.297Z,0
2019-01-10T03:53:32.934Z,0
2019-01-10T03:54:13.580Z,0
2019-01-10T03:54:54.213Z,0
2019-01-10T03:55:34.823Z,0
2019-01-10T03:56:15.438Z,0
2019-01-10T03:56:56.067Z,0
2019-01-10T03:57:36.686Z,0
2019-01-10T03:58:17.307Z,0
2019-01-10T03:58:57.899Z,0
2019-01-10T03:59:38.564Z,0
2019-01-10T04:00:19.178Z,0
2019-01-10T04:00:59.775Z,0
2019-01-10T04:01:40.399Z,0
2019-01-10T04:02:21.019Z,0
2019-01-10T04:03:01.635Z,0
2019-01-10T04:03:42.291Z,0
2019-01-10T04:04:22.889Z,0
2019-01-10T04:05:03.531Z,0
2019-01-10T04:05:44.126Z,0
2019-01-10T04:06:24.733Z,0
2019-01-10T04:07:05.342Z,0
2019-01-10T04:07:46.017Z,0
2019-01-10T04:08:26.622Z,0
2019-01-10T04:09:07.251Z,0
2019-01-10T04:09:47.884Z,0
2019-01-10T04:10:28.479Z,0
2019-01-10T04:11:09.113Z,0
2019-01-10T04:11:49.777Z,0
2019-01-10T04:12:30.405Z,0
2019-01-10T04:13:11.039Z,0
2019-01-10T04:13:57.232Z,0
2019-01-10T04:14:32.262Z,0
2019-01-10T04:15:12.885Z,0
2019-01-10T04:15:53.497Z,0
2019-01-10T04:16:34.127Z,0
2019-01-10T04:17:14.742Z,0
2019-01-10T04:17:55.348Z,0
2019-01-10T04:18:35.948Z,0
2019-01-10T04:19:16.557Z,0
2019-01-10T04:19:57.151Z,0
2019-01-10T04:20:37.789Z,0
2019-01-10T04:21:18.421Z,0
2019-01-10T04:21:59.031Z,0
2019-01-10T04:22:39.671Z,0
2019-01-10T04:23:20.287Z,0
2019-01-10T04:24:00.897Z,0
2019-01-10T04:24:41.557Z,0
2019-01-10T04:25:22.184Z,0
2019-01-10T04:26:02.788Z,0
2019-01-10T04:26:43.391Z,0
2019-01-10T04:27:24.009Z,0
2019-01-10T04:28:04.628Z,0
2019-01-10T04:28:45.239Z,0
2019-01-10T04:29:25.848Z,0
2019-01-10T04:30:06.469Z,0
2019-01-10T04:30:47.083Z,0
2019-01-10T04:31:27.747Z,0
2019-01-10T04:32:08.425Z,0
2019-01-10T04:32:49.041Z,0
2019-01-10T04:33:29.645Z,0
2019-01-10T04:34:10.243Z,0
2019-01-10T04:34:50.869Z,0
2019-01-10T04:35:31.519Z,0
2019-01-10T04:36:12.200Z,0
2019-01-10T04:36:52.797Z,0
2019-01-10T04:37:33.406Z,0
2019-01-10T04:38:14.015Z,0
2019-01-10T04:38:54.617Z,0
2019-01-10T04:39:35.219Z,0
2019-01-10T04:40:15.829Z,0
2019-01-10T04:40:56.432Z,0
2019-01-10T04:41:37.035Z,0
2019-01-10T04:42:17.655Z,0
2019-01-10T04:42:58.306Z,0
2019-01-10T04:43:38.905Z,0
2019-01-10T04:44:19.510Z,0
2019-01-10T04:45:00.164Z,0
2019-01-10T04:45:40.749Z,0
2019-01-10T04:46:21.366Z,0
2019-01-10T04:47:01.968Z,0
2019-01-10T04:47:42.581Z,0
2019-01-10T04:48:23.197Z,0
2019-01-10T04:49:03.825Z,0
2019-01-10T04:49:44.494Z,0
2019-01-10T04:50:25.121Z,0
2019-01-10T04:51:05.731Z,0
2019-01-10T04:51:46.327Z,0
2019-01-10T04:52:26.940Z,0
2019-01-10T04:53:07.551Z,0
2019-01-10T04:53:48.189Z,0
2019-01-10T04:54:28.854Z,0
2019-01-10T04:55:09.463Z,0
2019-01-10T04:55:50.071Z,0
2019-01-10T04:56:30.669Z,0
2019-01-10T04:57:11.302Z,0
2019-01-10T04:57:53.115Z,0
2019-01-10T04:58:32.518Z,0
2019-01-10T04:59:13.120Z,0
2019-01-10T04:59:53.798Z,0
2019-01-10T05:00:34.445Z,0
2019-01-10T05:01:14.987Z,0
2019-01-10T05:01:55.598Z,0
2019-01-10T05:02:36.227Z,0
2019-01-10T05:03:16.837Z,0
2019-01-10T05:03:57.434Z,0
2019-01-10T05:04:38.025Z,0
2019-01-10T05:05:18.795Z,0
2019-01-10T05:05:59.466Z,0
2019-01-10T05:06:40.068Z,0
2019-01-10T05:07:20.687Z,0
2019-01-10T05:08:01.291Z,0
2019-01-10T05:08:41.901Z,0
2019-01-10T05:09:22.509Z,0
2019-01-10T05:10:03.145Z,0
2019-01-10T05:10:43.795Z,0
2019-01-10T05:11:24.398Z,0
2019-01-10T05:12:05.041Z,0
2019-01-10T05:12:45.653Z,0
2019-01-10T05:13:26.277Z,0
2019-01-10T05:14:16.123Z,0
2019-01-10T05:14:47.523Z,0
2019-01-10T05:15:28.135Z,0
2019-01-10T05:16:08.871Z,0
2019-01-10T05:16:49.479Z,0
2019-01-10T05:17:30.311Z,0
2019-01-10T05:18:10.754Z,0
2019-01-10T05:18:51.383Z,0
2019-01-10T05:19:31.995Z,0
2019-01-10T05:20:12.612Z,0
2019-01-10T05:20:53.219Z,0
2019-01-10T05:21:33.825Z,0
2019-01-10T05:22:14.439Z,0
2019-01-10T05:22:55.057Z,0
2019-01-10T05:23:35.679Z,0
2019-01-10T05:24:16.289Z,0
2019-01-10T05:24:56.911Z,0
2019-01-10T05:25:37.525Z,0
2019-01-10T05:26:18.129Z,0
2019-01-10T05:26:58.729Z,0
2019-01-10T05:27:39.362Z,0
2019-01-10T05:28:20.028Z,0
2019-01-10T05:29:00.627Z,0
2019-01-10T05:29:41.243Z,0
2019-01-10T05:30:21.889Z,0
2019-01-10T05:31:02.563Z,0
2019-01-10T05:31:43.313Z,0
2019-01-10T05:32:23.909Z,0
2019-01-10T05:33:04.543Z,0
2019-01-10T05:33:45.162Z,0
2019-01-10T05:34:25.782Z,0
2019-01-10T05:35:06.408Z,0
2019-01-10T05:35:47.017Z,0
2019-01-10T05:36:27.635Z,0
2019-01-10T05:37:08.243Z,0
2019-01-10T05:37:48.885Z,0
2019-01-10T05:38:29.519Z,0
2019-01-10T05:39:10.131Z,0
2019-01-10T05:39:50.727Z,0
2019-01-10T05:40:31.377Z,0
2019-01-10T05:41:12.026Z,0
2019-01-10T05:41:52.637Z,0
2019-01-10T05:42:33.243Z,0
2019-01-10T05:43:13.854Z,0
2019-01-10T05:43:54.481Z,0
2019-01-10T05:44:35.111Z,0
2019-01-10T05:45:15.723Z,0
2019-01-10T05:45:56.397Z,0
2019-01-10T05:46:37.151Z,0
2019-01-10T05:47:17.670Z,0
2019-01-10T05:47:58.301Z,0
2019-01-10T05:48:38.913Z,0
2019-01-10T05:49:19.568Z,0
2019-01-10T05:50:00.211Z,0
2019-01-10T05:50:40.782Z,0
2019-01-10T05:51:21.423Z,0
2019-01-10T05:52:02.017Z,0
2019-01-10T05:52:42.690Z,0
2019-01-10T05:53:23.245Z,0
2019-01-10T05:54:03.879Z,0
2019-01-10T05:54:44.520Z,0
2019-01-10T05:55:25.138Z,0
2019-01-10T05:56:14.982Z,0
2019-01-10T05:56:46.368Z,0
2019-01-10T05:57:26.987Z,0
2019-01-10T05:58:07.599Z,0
2019-01-10T05:58:48.209Z,0
2019-01-10T05:59:28.864Z,0
2019-01-10T06:02:04.606Z,0
2019-01-10T06:02:45.225Z,0
2019-01-10T06:03:25.853Z,0
2019-01-10T06:04:06.525Z,0
2019-01-10T06:04:47.126Z,0
2019-01-10T06:05:27.734Z,0
2019-01-10T06:06:08.341Z,0
2019-01-10T06:06:48.957Z,0
2019-01-10T06:07:29.590Z,0
2019-01-10T06:08:10.191Z,0
2019-01-10T06:08:50.787Z,0
2019-01-10T06:09:31.397Z,0
2019-01-10T06:10:12.029Z,0
2019-01-10T06:10:52.679Z,0
2019-01-10T06:11:33.273Z,0
2019-01-10T06:12:13.924Z,0
2019-01-10T06:12:54.540Z,0
2019-01-10T06:13:35.153Z,0
2019-01-10T06:14:15.759Z,0
2019-01-10T06:14:56.345Z,0
2019-01-10T06:15:36.951Z,0
2019-01-10T06:16:17.564Z,0
2019-01-10T06:16:58.170Z,0
2019-01-10T06:17:38.800Z,0
2019-01-10T06:18:19.402Z,0
2019-01-10T06:19:00.005Z,0
2019-01-10T06:19:40.638Z,0
2019-01-10T06:20:21.271Z,0
2019-01-10T06:21:01.869Z,0
2019-01-10T06:21:42.469Z,0
2019-01-10T06:22:23.067Z,0
2019-01-10T06:23:03.681Z,0
2019-01-10T06:23:44.275Z,0
2019-01-10T06:24:24.929Z,0
2019-01-10T06:25:05.578Z,0
2019-01-10T06:25:46.191Z,0
2019-01-10T06:26:26.807Z,0
2019-01-10T06:27:07.435Z,0
2019-01-10T06:27:48.068Z,0
2019-01-10T06:28:28.711Z,0
2019-01-10T06:29:09.333Z,0
2019-01-10T06:29:49.943Z,0
2019-01-10T06:30:30.585Z,0
2019-01-10T06:31:11.186Z,0
2019-01-10T06:31:51.797Z,0
2019-01-10T06:32:32.409Z,0
2019-01-10T06:33:13.025Z,0
2019-01-10T06:33:53.665Z,0
2019-01-10T06:34:34.281Z,0
2019-01-10T06:35:14.891Z,0
2019-01-10T06:35:55.517Z,0
2019-01-10T06:36:36.129Z,0
2019-01-10T06:37:16.723Z,0
2019-01-10T06:37:57.320Z,0
2019-01-10T06:38:37.963Z,0
2019-01-10T06:39:19.793Z,0
2019-01-10T06:39:59.254Z,0
2019-01-10T06:40:39.881Z,0
2019-01-10T06:41:20.491Z,0
2019-01-10T06:42:01.093Z,0
2019-01-10T06:42:41.709Z,0
2019-01-10T06:43:22.318Z,0
2019-01-10T06:44:02.915Z,0
2019-01-10T06:44:44.605Z,0
2019-01-10T06:45:24.167Z,0
2019-01-10T06:46:04.802Z,0
2019-01-10T06:46:45.441Z,0
2019-01-10T06:47:26.051Z,0
2019-01-10T06:48:06.651Z,0
2019-01-10T06:48:47.283Z,0
2019-01-10T06:49:27.925Z,0
2019-01-10T06:50:08.547Z,0
2019-01-10T06:50:49.171Z,0
2019-01-10T06:51:29.797Z,0
2019-01-10T06:52:10.420Z,0
2019-01-10T06:52:51.045Z,0
2019-01-10T06:53:31.663Z,0
2019-01-10T06:54:12.257Z,0
2019-01-10T06:54:56.606Z,0
2019-01-10T06:55:33.497Z,0
2019-01-10T06:56:14.131Z,0
2019-01-10T06:56:54.738Z,0
2019-01-10T06:57:35.336Z,0
2019-01-10T06:58:15.952Z,0
2019-01-10T06:58:56.563Z,0
2019-01-10T06:59:37.187Z,0
2019-01-10T07:00:17.814Z,0
2019-01-10T07:00:58.431Z,0
2019-01-10T07:01:39.049Z,4
2019-01-10T07:02:19.667Z,4
2019-01-10T07:03:00.273Z,4
2019-01-10T07:03:40.881Z,0
2019-01-10T07:04:21.515Z,0
2019-01-10T07:05:02.115Z,0
2019-01-10T07:05:42.765Z,4
2019-01-10T07:06:23.357Z,4
2019-01-10T07:07:03.987Z,0
2019-01-10T07:07:44.597Z,4
2019-01-10T07:08:25.211Z,4
2019-01-10T07:09:05.795Z,4
2019-01-10T07:09:46.397Z,4
2019-01-10T07:10:28.897Z,4
2019-01-10T07:11:07.642Z,4
2019-01-10T07:11:48.297Z,8
2019-01-10T07:12:28.905Z,8
2019-01-10T07:13:09.527Z,4
2019-01-10T07:13:50.141Z,8
2019-01-10T07:14:30.751Z,8
2019-01-10T07:15:11.377Z,8
2019-01-10T07:15:51.964Z,8
2019-01-10T07:16:32.581Z,12
2019-01-10T07:17:13.227Z,12
2019-01-10T07:17:53.815Z,12
2019-01-10T07:18:34.459Z,12
2019-01-10T07:19:15.092Z,16
2019-01-10T07:19:55.759Z,16
2019-01-10T07:20:36.363Z,20
2019-01-10T07:21:16.975Z,20
2019-01-10T07:21:57.583Z,20
2019-01-10T07:22:38.185Z,24
2019-01-10T07:23:18.810Z,24
2019-01-10T07:23:59.449Z,28
2019-01-10T07:24:40.054Z,32
2019-01-10T07:25:20.688Z,28
2019-01-10T07:26:01.294Z,32
2019-01-10T07:26:41.884Z,36
2019-01-10T07:27:22.502Z,36
2019-01-10T07:28:03.130Z,40
2019-01-10T07:28:43.736Z,40
2019-01-10T07:29:24.374Z,44
2019-01-10T07:30:04.982Z,48
2019-01-10T07:30:45.600Z,48
2019-01-10T07:31:26.195Z,56
2019-01-10T07:32:06.802Z,56
2019-01-10T07:32:47.399Z,60
2019-01-10T07:33:28.024Z,60
2019-01-10T07:34:08.727Z,64
2019-01-10T07:34:49.350Z,68
2019-01-10T07:35:29.968Z,68
2019-01-10T07:36:10.597Z,72
2019-01-10T07:36:51.258Z,72
2019-01-10T07:37:32.065Z,76
2019-01-10T07:38:12.699Z,76
2019-01-10T07:38:53.366Z,76
2019-01-10T07:39:33.980Z,80
2019-01-10T07:40:14.631Z,84
2019-01-10T07:40:55.425Z,84
2019-01-10T07:41:35.894Z,88
2019-01-10T07:42:16.502Z,92
2019-01-10T07:42:57.133Z,92
2019-01-10T07:43:37.753Z,100
2019-01-10T07:44:18.351Z,100
2019-01-10T07:45:02.690Z,100
2019-01-10T07:45:39.598Z,104
2019-01-10T07:46:20.230Z,104
2019-01-10T07:47:01.043Z,104
2019-01-10T07:47:41.588Z,104
2019-01-10T07:48:22.197Z,108
2019-01-10T07:49:02.803Z,112
2019-01-10T07:49:43.427Z,112
2019-01-10T07:50:24.030Z,116
2019-01-10T07:51:04.676Z,116
2019-01-10T07:51:45.270Z,120
2019-01-10T07:52:25.894Z,120
2019-01-10T07:53:06.541Z,120
2019-01-10T07:53:47.147Z,120
2019-01-10T07:54:27.769Z,124
2019-01-10T07:55:08.391Z,124
2019-01-10T07:55:49.016Z,128
2019-01-10T07:56:29.670Z,132
2019-01-10T07:57:10.293Z,132
2019-01-10T07:57:50.947Z,136
2019-01-10T07:58:31.567Z,140
2019-01-10T07:59:12.214Z,144
2019-01-10T07:59:52.840Z,144
2019-01-10T08:00:33.465Z,148
2019-01-10T08:01:14.068Z,148
2019-01-10T08:01:54.684Z,152
2019-01-10T08:02:35.302Z,152
2019-01-10T08:03:15.913Z,156
2019-01-10T08:03:56.527Z,156
2019-01-10T08:04:37.163Z,160
2019-01-10T08:05:17.782Z,164
2019-01-10T08:05:58.384Z,164
2019-01-10T08:06:38.986Z,164
2019-01-10T08:07:19.630Z,168
2019-01-10T08:08:00.235Z,168
2019-01-10T08:08:40.829Z,176
2019-01-10T08:09:21.431Z,176
2019-01-10T08:10:02.226Z,176
2019-01-10T08:10:42.831Z,180
2019-01-10T08:11:23.460Z,180
2019-01-10T08:12:04.070Z,180
2019-01-10T08:12:44.663Z,184
2019-01-10T08:13:25.289Z,188
2019-01-10T08:14:06.046Z,188
2019-01-10T08:14:46.707Z,192
2019-01-10T08:15:27.416Z,192
2019-01-10T08:16:08.152Z,192
2019-01-10T08:16:48.741Z,200
2019-01-10T08:17:29.397Z,196
2019-01-10T08:18:10.045Z,200
2019-01-10T08:18:51.493Z,200
2019-01-10T08:19:31.331Z,204
2019-01-10T08:20:11.967Z,204
2019-01-10T08:20:52.677Z,208
2019-01-10T08:21:33.321Z,208
2019-01-10T08:22:13.944Z,208
2019-01-10T08:22:54.579Z,212
2019-01-10T08:23:35.187Z,212
2019-01-10T08:24:15.854Z,212
2019-01-10T08:24:56.456Z,212
2019-01-10T08:25:37.078Z,216
2019-01-10T08:26:17.681Z,216
2019-01-10T08:26:58.275Z,220
2019-01-10T08:27:38.891Z,220
2019-01-10T08:28:19.550Z,224
2019-01-10T08:29:00.138Z,224
2019-01-10T08:29:40.743Z,224
2019-01-10T08:30:21.373Z,224
2019-01-10T08:31:02.002Z,228
2019-01-10T08:31:42.634Z,232
2019-01-10T08:32:23.248Z,236
2019-01-10T08:33:03.898Z,236
2019-01-10T08:33:44.570Z,236
2019-01-10T08:34:25.191Z,240
2019-01-10T08:35:05.799Z,240
2019-01-10T08:35:46.391Z,244
2019-01-10T08:36:32.293Z,244
2019-01-10T08:37:07.663Z,248
2019-01-10T08:37:48.276Z,252
2019-01-10T08:38:29.042Z,256
2019-01-10T08:39:09.656Z,256
2019-01-10T08:39:50.298Z,260
2019-01-10T08:40:30.922Z,264
2019-01-10T08:41:13.816Z,264
2019-01-10T08:41:52.282Z,268
2019-01-10T08:42:33.099Z,268
2019-01-10T08:43:13.696Z,272
2019-01-10T08:43:54.302Z,276
2019-01-10T08:44:34.898Z,280
2019-01-10T08:45:21.310Z,280
2019-01-10T08:45:56.130Z,288
2019-01-10T08:46:36.748Z,288
2019-01-10T08:47:17.343Z,288
2019-01-10T08:47:57.968Z,292
2019-01-10T08:48:38.556Z,296
2019-01-10T08:49:19.158Z,300
2019-01-10T08:49:59.800Z,308
2019-01-10T08:50:40.420Z,308
2019-01-10T08:51:21.016Z,312
2019-01-10T08:52:01.664Z,312
2019-01-10T08:52:42.270Z,316
2019-01-10T08:53:22.899Z,316
2019-01-10T08:54:03.527Z,320
2019-01-10T08:54:44.172Z,324
2019-01-10T08:55:24.788Z,324
2019-01-10T08:56:05.403Z,332
2019-01-10T08:56:46.002Z,336
2019-01-10T08:57:26.614Z,336
2019-01-10T08:58:07.496Z,340
2019-01-10T08:58:48.136Z,348
2019-01-10T08:59:28.895Z,348
2019-01-10T09:00:09.692Z,356
2019-01-10T09:00:50.074Z,360
2019-01-10T09:01:30.694Z,364
2019-01-10T09:02:11.326Z,364
2019-01-10T09:02:51.930Z,372
2019-01-10T09:03:32.564Z,380
2019-01-10T09:04:13.175Z,380
2019-01-10T09:04:53.768Z,384
2019-01-10T09:05:34.422Z,388
2019-01-10T09:06:15.056Z,396
2019-01-10T09:06:55.656Z,400
2019-01-10T09:07:36.263Z,404
2019-01-10T09:08:16.886Z,408
2019-01-10T09:08:57.487Z,412
2019-01-10T09:09:38.108Z,420
2019-01-10T09:10:18.706Z,424
2019-01-10T09:10:59.338Z,432
2019-01-10T09:11:39.938Z,436
2019-01-10T09:12:20.548Z,440
2019-01-10T09:13:01.212Z,444
2019-01-10T09:13:41.836Z,456
2019-01-10T09:14:22.479Z,456
2019-01-10T09:15:03.101Z,460
2019-01-10T09:15:43.710Z,464
2019-01-10T09:16:24.326Z,472
2019-01-10T09:17:04.954Z,476
2019-01-10T09:17:45.581Z,484
2019-01-10T09:18:26.248Z,492
2019-01-10T09:19:06.836Z,496
2019-01-10T09:19:47.693Z,496
2019-01-10T09:20:28.166Z,504
2019-01-10T09:21:08.772Z,504
2019-01-10T09:21:49.601Z,504
2019-01-10T09:22:30.250Z,508
2019-01-10T09:23:10.863Z,508
2019-01-10T09:23:51.479Z,516
2019-01-10T09:24:32.404Z,516
2019-01-10T09:25:13.020Z,520
2019-01-10T09:25:53.655Z,528
2019-01-10T09:26:37.537Z,532
2019-01-10T09:27:15.138Z,532
2019-01-10T09:27:55.846Z,536
2019-01-10T09:28:36.446Z,540
2019-01-10T09:29:17.694Z,544
2019-01-10T09:29:58.374Z,552
2019-01-10T09:30:38.979Z,552
2019-01-10T09:31:19.674Z,560
2019-01-10T09:32:00.272Z,568
2019-01-10T09:32:40.884Z,572
2019-01-10T09:33:21.511Z,576
2019-01-10T09:34:02.113Z,584
2019-01-10T09:34:42.751Z,588
2019-01-10T09:35:23.379Z,592
2019-01-10T09:36:04.004Z,600
2019-01-10T09:36:44.622Z,604
2019-01-10T09:37:25.214Z,608
2019-01-10T09:38:05.830Z,612
2019-01-10T09:38:46.468Z,612
2019-01-10T09:39:27.094Z,616
2019-01-10T09:40:07.696Z,620
2019-01-10T09:40:48.326Z,624
2019-01-10T09:41:28.928Z,632
2019-01-10T09:42:09.528Z,632
2019-01-10T09:42:50.134Z,632
2019-01-10T09:43:30.746Z,636
2019-01-10T09:44:11.390Z,636
2019-01-10T09:44:51.990Z,640
2019-01-10T09:45:32.598Z,648
2019-01-10T09:46:13.212Z,648
2019-01-10T09:46:53.837Z,652
2019-01-10T09:47:34.468Z,656
2019-01-10T09:48:15.082Z,660
2019-01-10T09:48:55.708Z,664
2019-01-10T09:49:36.328Z,668
2019-01-10T09:50:16.966Z,668
2019-01-10T09:50:57.597Z,676
2019-01-10T09:51:38.196Z,684
2019-01-10T09:52:18.803Z,680